Terminal Aerodrome Forecast
Issued by NWS Grand Forks, ND

Home | Current Version | Previous Version | Text Only | Print | Product List | Glossary On
Versions: 1 2 3 4 5 6 7 8 9 10 11 12 13 14 15 16 17 18 19 20 21 22 23 24 25
751
FTUS43 KFGF 281005 AAB
TAFFAR
TAF AMD
KFAR 281005Z 2810/2906 04005KT 1/4SM FG OVC002
     FM281300 03005KT 5SM BR BKN006
     FM281400 04004KT P6SM SCT050
     FM281600 06004KT P6SM SCT080
     FM290500 10004KT P6SM BKN200=

USA.gov is the U.S. government's official web portal to all federal, state and local government web resources and services.